Time;durP1;ratioP1;P1;durP2;ratioP2;P2;SDS_P1;SDS_P2;PMS_P1;PMS_P2;Temp;Humidity;BMP_temperature;BMP_pressure;BME280_temperature;BME280_humidity;BME280_pressure;Samples;Min_cycle;Max_cycle;Signal;HPM_P1;HPM_P2
2021/05/24 00:01:15;;;;;;;10.97;10.27;;;24.70;58.20;;;;;;3558380;40;20225;-47
2021/05/24 00:03:42;;;;;;;10.53;10.03;;;24.70;58.30;;;;;;3559084;40;20884;-46
2021/05/24 00:06:13;;;;;;;10.10;9.70;;;24.70;58.20;;;;;;3552045;40;20471;-46
2021/05/24 00:08:40;;;;;;;10.43;9.93;;;24.70;58.00;;;;;;3547749;40;20629;-47
2021/05/24 00:11:12;;;;;;;10.80;10.30;;;24.70;58.00;;;;;;3548462;40;20541;-49
2021/05/24 00:13:45;;;;;;;10.50;10.10;;;24.70;58.10;;;;;;3548206;40;20574;-49
2021/05/24 00:16:15;;;;;;;10.73;10.13;;;24.70;58.10;;;;;;3552313;40;20497;-48
2021/05/24 00:18:50;;;;;;;10.10;9.70;;;24.70;58.00;;;;;;3559289;40;20483;-47
2021/05/24 00:21:20;;;;;;;10.40;9.90;;;24.70;57.80;;;;;;3557217;40;20483;-49
2021/05/24 00:23:48;;;;;;;10.80;10.30;;;24.70;57.80;;;;;;3557954;40;20236;-47
2021/05/24 00:26:16;;;;;;;10.70;10.20;;;24.70;57.80;;;;;;3553651;40;20537;-47
2021/05/24 00:28:43;;;;;;;10.80;10.30;;;24.70;57.70;;;;;;3553590;40;20492;-49
2021/05/24 00:31:11;;;;;;;11.13;10.53;;;24.70;57.70;;;;;;3557381;40;20485;-47
2021/05/24 00:33:38;;;;;;;10.73;10.23;;;24.70;57.70;;;;;;3558740;40;20494;-47
2021/05/24 00:36:06;;;;;;;10.80;10.30;;;24.70;57.90;;;;;;3550072;40;20480;-49
2021/05/24 00:38:54;;;;;;;11.23;10.75;;;24.70;57.90;;;;;;3553194;40;20468;-48
2021/05/24 00:41:22;;;;;;;10.65;10.25;;;24.70;57.70;;;;;;3558178;40;20221;-49
2021/05/24 00:43:49;;;;;;;10.57;10.10;;;24.70;57.50;;;;;;3558162;40;20233;-47
2021/05/24 00:46:16;;;;;;;10.30;9.70;;;24.70;57.50;;;;;;3557398;40;20564;-47
2021/05/24 00:48:43;;;;;;;10.83;10.20;;;24.70;57.40;;;;;;3563451;40;20492;-49
2021/05/24 00:51:10;;;;;;;10.67;10.10;;;24.70;57.30;;;;;;3567608;40;20845;-47
2021/05/24 00:53:36;;;;;;;10.67;10.27;;;24.70;57.30;;;;;;3567860;40;20474;-47
2021/05/24 00:56:04;;;;;;;10.77;10.30;;;24.70;57.40;;;;;;3567858;40;20489;-47
2021/05/24 00:58:31;;;;;;;11.25;10.75;;;24.70;57.30;;;;;;3564946;40;20308;-49
2021/05/24 01:00:58;;;;;;;10.50;10.10;;;24.70;57.20;;;;;;3549014;40;20504;-46
2021/05/24 01:03:25;;;;;;;10.37;9.97;;;24.70;57.30;;;;;;3557300;40;20502;-48
2021/05/24 01:05:56;;;;;;;10.87;10.40;;;24.70;57.20;;;;;;3557979;40;20473;-48
2021/05/24 01:08:23;;;;;;;9.90;9.60;;;24.70;57.20;;;;;;3558475;40;21132;-47
2021/05/24 01:10:51;;;;;;;10.40;9.90;;;24.70;57.00;;;;;;3558053;40;21090;-47
2021/05/24 01:13:19;;;;;;;10.00;9.60;;;24.70;57.00;;;;;;3557786;40;20311;-48
2021/05/24 01:15:46;;;;;;;10.10;9.70;;;24.70;57.10;;;;;;3556925;40;20584;-48
2021/05/24 01:18:13;;;;;;;10.60;10.20;;;24.70;57.10;;;;;;3558011;40;20482;-48
2021/05/24 01:20:41;;;;;;;10.47;9.90;;;24.70;57.10;;;;;;3558523;40;20479;-48
2021/05/24 01:23:20;;;;;;;9.60;9.20;;;24.70;57.00;;;;;;3558662;40;21168;-47
2021/05/24 01:25:49;;;;;;;10.20;9.70;;;24.70;57.00;;;;;;3557628;40;20488;-48
2021/05/24 01:28:18;;;;;;;10.50;9.87;;;24.70;57.00;;;;;;3561316;40;20571;-48
2021/05/24 01:30:45;;;;;;;10.17;9.77;;;24.70;57.00;;;;;;3566475;40;20478;-48
2021/05/24 01:33:13;;;;;;;10.50;9.90;;;24.70;56.90;;;;;;3568207;40;20483;-47
2021/05/24 01:35:41;;;;;;;10.13;9.73;;;24.70;57.00;;;;;;3568060;40;20478;-48
2021/05/24 01:38:12;;;;;;;10.57;10.17;;;24.80;56.90;;;;;;3566330;40;20498;-48
2021/05/24 01:40:42;;;;;;;10.90;10.40;;;24.70;56.80;;;;;;3560667;40;20497;-48
2021/05/24 01:43:09;;;;;;;11.15;10.65;;;24.70;56.80;;;;;;3562913;40;20502;-48
2021/05/24 01:45:38;;;;;;;10.90;10.50;;;24.70;56.70;;;;;;3567800;40;20244;-47
2021/05/24 01:48:07;;;;;;;10.40;10.00;;;24.70;56.70;;;;;;3567315;40;20241;-47
2021/05/24 01:50:35;;;;;;;10.70;10.30;;;24.80;56.70;;;;;;3560701;40;20485;-48
2021/05/24 01:53:04;;;;;;;11.00;10.40;;;24.80;56.60;;;;;;3557462;40;20490;-47
2021/05/24 01:55:32;;;;;;;10.53;10.13;;;24.80;56.70;;;;;;3557845;40;20502;-48
2021/05/24 01:58:00;;;;;;;11.20;10.70;;;24.70;56.50;;;;;;3548667;40;20866;-48
2021/05/24 02:00:28;;;;;;;11.07;10.53;;;24.70;56.50;;;;;;3557781;40;20243;-48
2021/05/24 02:02:56;;;;;;;10.90;10.50;;;24.80;56.60;;;;;;3557496;40;20481;-48
2021/05/24 02:05:26;;;;;;;10.87;10.47;;;24.80;56.60;;;;;;3557759;40;20474;-48
2021/05/24 02:07:54;;;;;;;11.03;10.53;;;24.80;56.50;;;;;;3560840;40;20571;-48
2021/05/24 02:10:23;;;;;;;11.37;10.77;;;24.80;56.50;;;;;;3559151;40;20485;-47
2021/05/24 02:12:56;;;;;;;11.30;10.60;;;24.80;56.40;;;;;;3557957;40;20504;-47
2021/05/24 02:15:29;;;;;;;10.60;10.10;;;24.70;56.30;;;;;;3557846;40;20488;-47
2021/05/24 02:17:55;;;;;;;10.23;9.87;;;24.70;56.30;;;;;;3558677;40;20483;-47
2021/05/24 02:20:24;;;;;;;10.90;10.50;;;24.70;56.40;;;;;;3564929;40;20510;-45
2021/05/24 02:22:52;;;;;;;10.90;10.30;;;24.70;56.40;;;;;;3565630;40;20479;-45
2021/05/24 02:25:19;;;;;;;10.93;10.53;;;24.70;56.30;;;;;;3566198;40;20830;-48
2021/05/24 02:27:47;;;;;;;10.60;10.00;;;24.70;56.30;;;;;;3566466;40;20866;-45
2021/05/24 02:30:17;;;;;;;10.70;10.30;;;24.70;56.30;;;;;;3565394;40;20539;-47
2021/05/24 02:32:45;;;;;;;10.83;10.37;;;24.70;56.30;;;;;;3554164;40;20837;-48
2021/05/24 02:35:16;;;;;;;10.50;10.10;;;24.70;56.30;;;;;;3566257;40;20510;-48
2021/05/24 02:37:45;;;;;;;10.47;9.90;;;24.70;56.20;;;;;;3566136;40;20490;-46
2021/05/24 02:40:16;;;;;;;9.90;9.50;;;24.70;56.20;;;;;;3565737;40;20554;-49
2021/05/24 02:42:44;;;;;;;10.37;9.97;;;24.70;56.40;;;;;;3567169;40;20531;-47
2021/05/24 02:45:14;;;;;;;10.75;10.35;;;24.70;56.10;;;;;;3567496;40;20505;-47
2021/05/24 02:47:41;;;;;;;10.20;9.90;;;24.70;56.10;;;;;;3566706;40;20228;-47
2021/05/24 02:50:15;;;;;;;10.70;10.20;;;24.70;56.10;;;;;;3566495;40;20496;-47
2021/05/24 02:52:43;;;;;;;10.30;9.90;;;24.70;56.10;;;;;;3564548;40;20594;-47
2021/05/24 02:55:12;;;;;;;10.37;9.97;;;24.70;56.60;;;;;;3566108;40;20490;-46
2021/05/24 02:57:40;;;;;;;10.63;10.23;;;24.70;56.00;;;;;;3564810;40;20913;-47
2021/05/24 03:00:09;;;;;;;10.40;9.90;;;24.70;56.10;;;;;;3563951;40;20579;-47
2021/05/24 03:02:44;;;;;;;11.10;10.60;;;24.70;56.00;;;;;;3566396;40;20317;-47
2021/05/24 03:05:17;;;;;;;10.53;10.03;;;24.80;56.10;;;;;;3557085;40;20486;-49
2021/05/24 03:07:45;;;;;;;10.50;10.10;;;24.80;56.10;;;;;;3547319;40;20483;-47
2021/05/24 03:10:14;;;;;;;10.53;10.23;;;24.80;56.00;;;;;;3566327;40;20551;-49
2021/05/24 03:12:41;;;;;;;11.03;10.60;;;24.80;56.50;;;;;;3564379;40;20483;-47
2021/05/24 03:15:10;;;;;;;11.20;10.80;;;24.80;56.00;;;;;;3564564;40;20488;-48
2021/05/24 03:17:39;;;;;;;10.90;10.50;;;24.80;56.00;;;;;;3566448;40;20836;-47
2021/05/24 03:20:09;;;;;;;11.17;10.67;;;24.80;56.00;;;;;;3565302;40;20475;-48
2021/05/24 03:22:38;;;;;;;11.00;10.60;;;24.80;56.50;;;;;;3566270;40;20484;-48
2021/05/24 03:25:07;;;;;;;11.00;10.60;;;24.80;55.90;;;;;;3564949;40;20496;-48
2021/05/24 03:27:34;;;;;;;10.50;10.10;;;24.80;56.00;;;;;;3566282;40;20563;-47
2021/05/24 03:30:05;;;;;;;11.17;10.77;;;24.80;55.90;;;;;;3564039;40;20696;-47
2021/05/24 03:32:36;;;;;;;11.98;11.57;;;24.80;55.90;;;;;;3567236;40;20501;-47
2021/05/24 03:35:04;;;;;;;11.60;11.20;;;24.80;55.90;;;;;;3566706;40;20601;-49
2021/05/24 03:37:30;;;;;;;12.07;11.40;;;24.80;55.90;;;;;;3567605;40;20500;-47
2021/05/24 03:39:57;;;;;;;11.83;11.43;;;24.80;55.90;;;;;;3566495;40;20498;-48
2021/05/24 03:42:25;;;;;;;12.27;11.40;;;24.80;55.80;;;;;;3566891;40;20598;-47
2021/05/24 03:44:52;;;;;;;11.37;10.97;;;24.80;55.80;;;;;;3566613;40;20491;-47
2021/05/24 03:47:20;;;;;;;11.63;11.13;;;24.80;55.80;;;;;;3567117;40;20927;-48
2021/05/24 03:49:47;;;;;;;11.80;11.30;;;24.80;55.70;;;;;;3565453;40;20481;-47
2021/05/24 03:52:15;;;;;;;11.63;11.07;;;24.90;55.80;;;;;;3565250;40;20847;-47
2021/05/24 03:54:44;;;;;;;11.40;11.00;;;24.90;55.70;;;;;;3566237;40;20476;-47
2021/05/24 03:57:12;;;;;;;11.67;11.17;;;24.90;55.70;;;;;;3565962;40;20492;-47
2021/05/24 03:59:39;;;;;;;11.50;10.97;;;25.00;55.70;;;;;;3564977;40;20522;-48
2021/05/24 04:02:08;;;;;;;11.83;11.43;;;25.00;55.60;;;;;;3565732;40;20490;-47
2021/05/24 04:04:35;;;;;;;11.73;11.23;;;25.00;55.70;;;;;;3566609;40;20480;-47
2021/05/24 04:07:04;;;;;;;11.73;11.33;;;25.00;55.60;;;;;;3564755;40;21049;-47
2021/05/24 04:09:32;;;;;;;11.40;11.00;;;25.00;55.60;;;;;;3564904;40;20481;-46
2021/05/24 04:12:00;;;;;;;11.70;11.30;;;25.00;55.60;;;;;;3564273;40;20490;-47
2021/05/24 04:14:27;;;;;;;11.70;11.30;;;25.10;55.60;;;;;;3565522;40;20498;-48
2021/05/24 04:16:55;;;;;;;12.05;11.45;;;25.10;55.50;;;;;;3566672;40;20224;-47
2021/05/24 04:19:22;;;;;;;11.50;11.10;;;25.10;55.40;;;;;;3564312;40;20231;-47
2021/05/24 04:21:50;;;;;;;11.23;10.70;;;25.20;55.30;;;;;;3565486;40;20513;-48
2021/05/24 04:24:17;;;;;;;11.90;11.50;;;25.20;55.30;;;;;;3566156;40;20908;-47
2021/05/24 04:26:44;;;;;;;11.20;10.80;;;25.20;55.30;;;;;;3565908;40;20477;-47
2021/05/24 04:29:12;;;;;;;11.50;11.10;;;25.20;55.20;;;;;;3564566;40;20494;-47
2021/05/24 04:31:41;;;;;;;11.83;11.23;;;25.20;55.20;;;;;;3566623;40;20227;-48
2021/05/24 04:34:10;;;;;;;12.10;11.43;;;25.20;55.20;;;;;;3567204;40;20873;-47
2021/05/24 04:36:39;;;;;;;11.30;10.90;;;25.20;55.10;;;;;;3567797;40;20728;-49
2021/05/24 04:39:06;;;;;;;11.65;11.18;;;25.30;55.10;;;;;;3566068;40;20503;-47
2021/05/24 04:41:33;;;;;;;11.63;11.18;;;25.30;55.10;;;;;;3567040;40;20241;-47
2021/05/24 04:44:10;;;;;;;11.67;11.27;;;25.30;55.10;;;;;;3566165;40;20213;-47
2021/05/24 04:46:37;;;;;;;11.60;11.20;;;25.40;55.00;;;;;;3565766;40;20505;-47
2021/05/24 04:49:05;;;;;;;11.47;11.07;;;25.40;55.00;;;;;;3565919;40;20241;-48
2021/05/24 04:51:31;;;;;;;11.60;11.10;;;25.40;55.00;;;;;;3565119;40;20490;-48
2021/05/24 04:53:59;;;;;;;11.50;11.10;;;25.40;54.90;;;;;;3566821;40;20478;-47
2021/05/24 04:56:26;;;;;;;12.27;11.57;;;25.40;54.90;;;;;;3566818;40;20481;-48
2021/05/24 04:58:54;;;;;;;11.67;11.27;;;25.40;54.90;;;;;;3566585;40;20477;-47
2021/05/24 05:01:20;;;;;;;11.60;11.20;;;25.40;54.90;;;;;;3563129;40;20722;-47
2021/05/24 05:03:47;;;;;;;12.13;11.73;;;25.50;54.90;;;;;;3567392;40;20478;-47
2021/05/24 05:06:15;;;;;;;11.37;11.00;;;25.50;54.90;;;;;;3566700;40;20873;-47
2021/05/24 05:08:43;;;;;;;11.90;11.40;;;25.50;54.90;;;;;;3566556;40;20503;-47
2021/05/24 05:11:10;;;;;;;11.40;11.00;;;25.50;54.90;;;;;;3566897;40;21086;-48
2021/05/24 05:13:39;;;;;;;10.80;10.50;;;25.50;54.80;;;;;;3567053;40;20482;-48
2021/05/24 05:16:06;;;;;;;11.20;10.80;;;25.50;54.80;;;;;;3566362;40;20915;-47
2021/05/24 05:18:34;;;;;;;10.90;10.60;;;25.50;54.80;;;;;;3565955;40;20572;-47
2021/05/24 05:21:00;;;;;;;10.90;10.60;;;25.50;54.80;;;;;;3567061;40;20490;-48
2021/05/24 05:23:28;;;;;;;11.73;11.33;;;25.60;54.90;;;;;;3567105;40;20500;-47
2021/05/24 05:25:54;;;;;;;11.47;11.07;;;25.60;54.90;;;;;;3563479;40;20854;-47
2021/05/24 05:28:23;;;;;;;11.70;11.30;;;25.60;54.80;;;;;;3566561;40;20492;-48
2021/05/24 05:30:49;;;;;;;11.83;11.43;;;25.60;54.70;;;;;;3566048;40;20580;-46
2021/05/24 05:33:17;;;;;;;11.53;11.23;;;25.70;54.80;;;;;;3566884;40;21105;-47
2021/05/24 05:35:47;;;;;;;11.83;11.33;;;25.70;54.60;;;;;;3566612;40;20962;-48
2021/05/24 05:38:15;;;;;;;11.68;11.27;;;25.70;54.70;;;;;;3565841;40;20490;-47
2021/05/24 05:40:46;;;;;;;11.50;11.07;;;25.70;54.80;;;;;;3569874;40;20627;-47
2021/05/24 05:43:14;;;;;;;11.20;10.80;;;25.70;54.80;;;;;;3576812;40;20882;-47
2021/05/24 05:45:41;;;;;;;11.37;10.97;;;25.70;54.60;;;;;;3576727;40;20484;-48
2021/05/24 05:48:09;;;;;;;11.53;11.00;;;25.70;54.60;;;;;;3567807;40;20733;-47
2021/05/24 05:50:37;;;;;;;11.37;10.97;;;25.80;54.60;;;;;;3565875;40;20491;-47
2021/05/24 05:53:05;;;;;;;10.98;10.68;;;25.80;54.60;;;;;;3565976;40;20495;-47
2021/05/24 05:55:32;;;;;;;11.50;10.90;;;25.70;54.50;;;;;;3565057;40;20776;-48
2021/05/24 05:58:01;;;;;;;10.93;10.63;;;25.80;54.60;;;;;;3566295;40;20480;-47
2021/05/24 06:00:28;;;;;;;11.80;11.40;;;25.80;54.60;;;;;;3564842;40;20518;-48
2021/05/24 06:02:59;;;;;;;11.50;11.10;;;25.70;54.50;;;;;;3566517;40;21066;-48
2021/05/24 06:05:27;;;;;;;11.50;11.10;;;25.70;54.50;;;;;;3566672;40;20232;-48
2021/05/24 06:07:54;;;;;;;11.60;11.10;;;25.80;54.60;;;;;;3566399;40;20479;-47
2021/05/24 06:10:21;;;;;;;11.40;10.90;;;25.80;54.60;;;;;;3565086;40;20903;-47
2021/05/24 06:12:49;;;;;;;11.67;11.10;;;25.80;54.50;;;;;;3564557;40;20479;-47
2021/05/24 06:15:18;;;;;;;10.90;10.60;;;25.80;54.50;;;;;;3566057;40;20712;-47
2021/05/24 06:17:46;;;;;;;11.93;11.43;;;25.80;54.50;;;;;;3565588;40;20500;-50
2021/05/24 06:20:14;;;;;;;12.10;11.70;;;25.80;54.50;;;;;;3564456;40;20498;-48
2021/05/24 06:22:44;;;;;;;11.87;11.47;;;25.80;55.00;;;;;;3566610;40;20531;-47
2021/05/24 06:25:13;;;;;;;11.47;11.07;;;25.90;54.50;;;;;;3564107;40;20490;-47
2021/05/24 06:27:44;;;;;;;11.13;10.73;;;25.80;54.40;;;;;;3553761;40;20527;-48
2021/05/24 06:30:13;;;;;;;11.87;11.20;;;25.80;54.50;;;;;;3554897;40;20889;-47
2021/05/24 06:32:45;;;;;;;11.83;11.20;;;25.90;54.50;;;;;;3555269;40;20498;-48
2021/05/24 06:35:15;;;;;;;11.43;11.03;;;25.90;54.60;;;;;;3555624;40;21246;-48
2021/05/24 06:37:41;;;;;;;12.15;11.57;;;25.90;55.00;;;;;;3552978;40;20520;-48
2021/05/24 06:40:10;;;;;;;11.23;10.73;;;25.90;55.30;;;;;;3555140;40;20240;-47
2021/05/24 06:42:37;;;;;;;12.33;11.67;;;26.00;55.50;;;;;;3546062;40;20235;-48
2021/05/24 06:45:06;;;;;;;12.97;11.77;;;26.00;55.50;;;;;;3552081;40;20483;-47
2021/05/24 06:47:33;;;;;;;13.80;12.53;;;26.00;55.50;;;;;;3554572;40;20489;-47
2021/05/24 06:50:01;;;;;;;12.60;11.80;;;26.00;55.70;;;;;;3555049;40;20490;-47
2021/05/24 06:52:29;;;;;;;12.63;11.60;;;26.00;55.70;;;;;;3553881;40;20780;-48
2021/05/24 06:54:58;;;;;;;12.37;11.67;;;26.00;55.60;;;;;;3554817;40;20497;-47
2021/05/24 06:57:24;;;;;;;12.10;11.40;;;26.00;55.40;;;;;;3554987;40;20885;-47
2021/05/24 06:59:52;;;;;;;12.20;11.70;;;26.00;55.20;;;;;;3554831;40;21197;-47
2021/05/24 07:02:19;;;;;;;11.50;11.10;;;26.00;55.10;;;;;;3548375;40;20488;-47
2021/05/24 07:04:47;;;;;;;11.90;11.40;;;26.00;54.90;;;;;;3545895;40;20502;-47
2021/05/24 07:07:14;;;;;;;12.57;11.67;;;26.00;54.80;;;;;;3551076;40;20581;-46
2021/05/24 07:09:42;;;;;;;11.60;11.10;;;26.00;54.70;;;;;;3564897;40;20475;-46
2021/05/24 07:12:10;;;;;;;11.50;11.00;;;26.00;54.60;;;;;;3565020;40;20585;-47
2021/05/24 07:14:38;;;;;;;11.07;10.40;;;26.00;54.60;;;;;;3565183;40;20610;-47
2021/05/24 07:17:05;;;;;;;10.93;10.43;;;26.00;54.40;;;;;;3565204;40;20973;-47
2021/05/24 07:19:33;;;;;;;11.57;10.90;;;26.00;54.60;;;;;;3565549;40;20472;-47
2021/05/24 07:22:00;;;;;;;11.50;10.93;;;26.00;55.10;;;;;;3565406;40;20480;-47
2021/05/24 07:24:28;;;;;;;12.20;11.50;;;26.00;55.20;;;;;;3564743;40;20481;-47
2021/05/24 07:26:55;;;;;;;11.37;10.80;;;26.10;55.40;;;;;;3565029;40;20478;-48
2021/05/24 07:29:22;;;;;;;10.80;10.40;;;26.10;55.40;;;;;;3565708;40;20487;-47
2021/05/24 07:31:48;;;;;;;11.45;10.95;;;26.10;55.50;;;;;;3564054;40;20515;-48
2021/05/24 07:34:16;;;;;;;11.50;11.00;;;26.10;55.60;;;;;;3565590;40;20257;-47
2021/05/24 07:36:43;;;;;;;11.17;10.63;;;26.10;55.70;;;;;;3564747;40;20226;-48
2021/05/24 07:39:11;;;;;;;11.90;11.00;;;26.10;55.70;;;;;;3564684;40;20492;-47
2021/05/24 07:41:38;;;;;;;11.27;10.88;;;26.10;55.70;;;;;;3560304;40;20500;-48
2021/05/24 07:44:06;;;;;;;11.10;10.60;;;26.10;55.80;;;;;;3564944;40;20771;-48
2021/05/24 07:46:32;;;;;;;10.67;10.27;;;26.10;55.90;;;;;;3559536;40;20474;-48
2021/05/24 07:49:00;;;;;;;11.40;10.50;;;26.10;55.90;;;;;;3555590;40;20477;-47
2021/05/24 07:51:27;;;;;;;11.02;10.45;;;26.10;56.00;;;;;;3557753;40;20491;-47
2021/05/24 07:53:54;;;;;;;10.87;10.47;;;26.10;56.00;;;;;;3564872;40;20228;-47
2021/05/24 07:58:50;;;;;;;11.07;10.37;;;26.10;56.10;;;;;;3562874;40;20466;-47
2021/05/24 08:01:17;;;;;;;11.20;10.60;;;26.10;56.20;;;;;;3564353;40;20964;-48
2021/05/24 08:03:45;;;;;;;10.60;10.20;;;26.10;56.20;;;;;;3556306;40;20519;-48
2021/05/24 08:06:12;;;;;;;10.93;10.37;;;26.10;56.30;;;;;;3555505;40;20858;-47
2021/05/24 08:08:41;;;;;;;11.07;10.60;;;26.10;56.30;;;;;;3556009;40;21110;-48
2021/05/24 08:11:11;;;;;;;11.17;10.60;;;26.10;56.40;;;;;;3546717;40;20574;-47
2021/05/24 08:13:38;;;;;;;11.60;10.48;;;26.10;56.40;;;;;;3564341;40;20501;-47
2021/05/24 08:16:05;;;;;;;10.90;10.40;;;26.10;56.50;;;;;;3564477;40;20330;-47
2021/05/24 08:18:33;;;;;;;11.67;10.90;;;26.10;56.50;;;;;;3554149;40;20483;-47
2021/05/24 08:21:01;;;;;;;11.83;11.17;;;26.10;56.50;;;;;;3555180;40;20479;-47
2021/05/24 08:23:28;;;;;;;11.40;10.90;;;26.10;56.50;;;;;;3554255;40;20488;-47
2021/05/24 08:25:55;;;;;;;11.27;10.77;;;26.10;56.60;;;;;;3572130;40;20481;-47
2021/05/24 08:28:22;;;;;;;11.40;10.80;;;26.10;56.60;;;;;;3555749;40;20495;-47
2021/05/24 08:30:49;;;;;;;11.30;10.70;;;26.10;56.60;;;;;;3557549;40;20502;-49
2021/05/24 08:33:18;;;;;;;10.67;10.27;;;26.10;56.70;;;;;;3561835;40;20883;-46
2021/05/24 08:35:45;;;;;;;11.50;11.00;;;26.00;56.70;;;;;;3555112;40;20616;-47
2021/05/24 08:38:12;;;;;;;10.97;10.57;;;26.00;56.80;;;;;;3554811;40;20473;-47
2021/05/24 08:40:40;;;;;;;11.67;11.07;;;26.00;56.90;;;;;;3555194;40;20482;-47
2021/05/24 08:43:08;;;;;;;11.70;11.20;;;26.00;57.00;;;;;;3562314;40;20488;-48
2021/05/24 08:45:38;;;;;;;11.80;11.10;;;26.00;57.00;;;;;;3555435;40;20611;-48
2021/05/24 08:48:08;;;;;;;11.68;11.18;;;25.90;57.00;;;;;;3544264;40;20494;-48
2021/05/24 08:50:36;;;;;;;11.10;10.70;;;26.00;57.10;;;;;;3553610;40;20233;-48
2021/05/24 08:53:05;;;;;;;10.90;10.53;;;25.90;57.10;;;;;;3555016;40;20788;-48
2021/05/24 08:55:32;;;;;;;10.43;9.93;;;25.90;57.10;;;;;;3564311;40;20494;-49
2021/05/24 08:58:00;;;;;;;11.00;10.57;;;25.90;57.20;;;;;;3563821;40;20536;-49
2021/05/24 09:00:27;;;;;;;11.10;10.50;;;25.90;57.20;;;;;;3551016;40;20491;-48
2021/05/24 09:02:56;;;;;;;11.80;11.30;;;25.90;57.20;;;;;;3553692;40;20490;-49
2021/05/24 09:05:29;;;;;;;10.30;10.00;;;25.90;57.30;;;;;;3552188;40;20478;-47
2021/05/24 09:08:06;;;;;;;11.65;11.05;;;25.90;57.40;;;;;;3553844;40;20502;-49
2021/05/24 09:10:35;;;;;;;11.40;10.73;;;25.80;57.40;;;;;;3553910;40;20625;-47
2021/05/24 09:13:09;;;;;;;11.27;10.80;;;25.80;57.40;;;;;;3554086;40;20476;-49
2021/05/24 09:15:38;;;;;;;11.27;10.87;;;25.80;57.50;;;;;;3554874;40;20493;-47
2021/05/24 09:18:07;;;;;;;11.50;10.90;;;25.80;57.50;;;;;;3547209;40;20486;-47
2021/05/24 09:20:36;;;;;;;11.03;10.63;;;25.70;57.50;;;;;;3543939;40;20535;-47
2021/05/24 09:23:17;;;;;;;11.47;11.07;;;25.70;57.60;;;;;;3546065;40;20482;-48
2021/05/24 09:25:58;;;;;;;12.03;11.53;;;25.70;57.60;;;;;;3553114;40;21025;-47
2021/05/24 09:28:27;;;;;;;11.77;11.20;;;25.70;57.60;;;;;;3545655;40;20485;-48
2021/05/24 09:30:54;;;;;;;10.80;10.50;;;25.70;57.70;;;;;;3545141;40;20548;-49
2021/05/24 09:33:23;;;;;;;11.93;11.53;;;25.70;57.70;;;;;;3547366;40;20884;-47
2021/05/24 09:35:52;;;;;;;11.67;11.07;;;25.70;57.70;;;;;;3556146;40;20476;-47
2021/05/24 09:38:21;;;;;;;11.18;10.80;;;25.70;57.80;;;;;;3549171;40;20512;-47
2021/05/24 09:40:57;;;;;;;11.77;11.27;;;25.70;57.80;;;;;;3549381;40;20228;-48
2021/05/24 09:43:44;;;;;;;11.10;10.70;;;25.70;57.80;;;;;;3553637;40;20897;-47
2021/05/24 09:46:16;;;;;;;11.47;11.00;;;25.70;57.90;;;;;;3553997;40;20224;-47
2021/05/24 09:48:44;;;;;;;11.60;11.00;;;25.70;57.90;;;;;;3554012;40;20496;-47
2021/05/24 09:51:13;;;;;;;10.70;10.30;;;25.60;57.90;;;;;;3554381;40;20483;-47
2021/05/24 09:53:54;;;;;;;10.93;10.43;;;25.70;58.00;;;;;;3553813;40;20486;-47
2021/05/24 09:56:22;;;;;;;10.60;10.20;;;25.60;58.00;;;;;;3564532;40;20498;-48
2021/05/24 09:58:59;;;;;;;10.90;10.30;;;25.60;58.00;;;;;;3565702;40;20998;-47
2021/05/24 10:01:31;;;;;;;10.20;9.90;;;25.60;58.10;;;;;;3564001;40;20500;-47
2021/05/24 10:04:00;;;;;;;10.33;9.93;;;25.50;58.10;;;;;;3563130;40;20496;-47
2021/05/24 10:06:28;;;;;;;9.07;8.77;;;25.50;58.20;;;;;;3564629;40;20593;-49
2021/05/24 10:08:56;;;;;;;10.57;10.07;;;25.50;58.20;;;;;;3564327;40;20211;-48
2021/05/24 10:11:24;;;;;;;10.93;10.53;;;25.50;58.20;;;;;;3563585;40;20491;-47
2021/05/24 10:13:54;;;;;;;10.85;10.43;;;25.50;58.30;;;;;;3563744;40;20885;-47
2021/05/24 10:16:21;;;;;;;10.77;10.23;;;25.50;58.40;;;;;;3542338;40;20228;-48
2021/05/24 10:18:49;;;;;;;10.63;10.03;;;25.50;58.40;;;;;;3552919;40;21096;-47
2021/05/24 10:21:17;;;;;;;10.30;9.90;;;25.50;58.40;;;;;;3564171;40;20494;-47
2021/05/24 10:23:46;;;;;;;10.10;9.63;;;25.50;58.40;;;;;;3562973;40;20503;-47
2021/05/24 10:26:19;;;;;;;10.60;10.10;;;25.40;58.40;;;;;;3563771;40;20816;-48
2021/05/24 10:28:52;;;;;;;10.30;9.97;;;25.50;58.50;;;;;;3564463;40;20489;-47
2021/05/24 10:31:24;;;;;;;10.30;10.00;;;25.40;58.40;;;;;;3563231;40;20486;-49
2021/05/24 10:33:51;;;;;;;11.77;11.23;;;25.40;58.50;;;;;;3563902;40;20732;-48
2021/05/24 10:36:23;;;;;;;11.50;11.10;;;25.40;58.60;;;;;;3561845;40;20484;-47
2021/05/24 10:39:14;;;;;;;10.27;9.97;;;25.40;58.60;;;;;;3563041;40;20476;-48
2021/05/24 10:41:46;;;;;;;11.27;10.70;;;25.40;58.70;;;;;;3562163;40;20574;-49
2021/05/24 10:44:17;;;;;;;11.70;11.10;;;25.40;58.70;;;;;;3543045;40;21013;-50
2021/05/24 10:46:45;;;;;;;10.67;10.27;;;25.30;58.70;;;;;;3551529;40;20494;-49
2021/05/24 10:49:19;;;;;;;10.80;10.30;;;25.30;58.70;;;;;;3552603;40;20488;-49
2021/05/24 10:51:52;;;;;;;10.85;10.45;;;25.30;58.70;;;;;;3553020;40;20854;-49
2021/05/24 10:54:33;;;;;;;10.90;10.30;;;25.40;58.80;;;;;;3545304;40;20232;-51
2021/05/24 10:57:19;;;;;;;9.97;9.60;;;25.30;58.80;;;;;;3552447;40;20235;-49
2021/05/24 10:59:51;;;;;;;10.40;10.00;;;25.30;58.70;;;;;;3552806;40;20506;-49
2021/05/24 11:02:38;;;;;;;10.60;10.30;;;25.40;58.80;;;;;;3551728;40;20491;-50
2021/05/24 11:05:08;;;;;;;10.20;9.90;;;25.30;58.80;;;;;;3552611;40;20823;-49
2021/05/24 11:07:35;;;;;;;10.17;9.77;;;25.30;58.90;;;;;;3552771;40;21100;-51
2021/05/24 11:10:23;;;;;;;10.30;9.90;;;25.30;58.90;;;;;;3556847;40;20513;-49
2021/05/24 11:12:52;;;;;;;10.10;9.70;;;25.20;58.90;;;;;;3561812;40;20497;-49
2021/05/24 11:15:21;;;;;;;10.00;9.60;;;25.20;58.90;;;;;;3562289;40;20489;-50
2021/05/24 11:18:10;;;;;;;11.17;10.67;;;25.20;59.00;;;;;;3562320;40;20723;-51
2021/05/24 11:20:40;;;;;;;9.70;9.40;;;25.20;59.00;;;;;;3561805;40;20474;-51
2021/05/24 11:23:14;;;;;;;10.33;9.93;;;25.20;59.10;;;;;;3554858;40;20493;-49
2021/05/24 11:25:54;;;;;;;10.20;9.83;;;25.20;59.10;;;;;;3562593;40;20564;-50
2021/05/24 11:28:33;;;;;;;9.45;9.10;;;25.20;59.10;;;;;;3562259;40;20533;-50
2021/05/24 11:31:11;;;;;;;9.93;9.53;;;25.20;59.20;;;;;;3560703;40;20231;-49
2021/05/24 11:33:41;;;;;;;9.20;8.77;;;25.20;59.30;;;;;;3553307;40;20743;-50
2021/05/24 11:36:13;;;;;;;9.60;9.30;;;25.20;59.20;;;;;;3554034;40;20471;-49
2021/05/24 11:38:39;;;;;;;9.63;9.33;;;25.20;59.30;;;;;;3554659;40;20569;-50
2021/05/24 11:41:11;;;;;;;9.90;9.60;;;25.20;59.30;;;;;;3560595;40;20486;-51
2021/05/24 11:43:53;;;;;;;9.80;9.47;;;25.10;59.20;;;;;;3554339;40;20624;-50
2021/05/24 11:46:20;;;;;;;10.20;9.90;;;25.10;59.30;;;;;;3554341;40;20592;-50
2021/05/24 11:48:50;;;;;;;10.13;9.63;;;25.10;59.30;;;;;;3555009;40;20497;-49
2021/05/24 11:51:17;;;;;;;10.07;9.67;;;25.10;59.30;;;;;;3554821;40;20616;-49
2021/05/24 11:54:02;;;;;;;10.70;10.20;;;25.10;59.40;;;;;;3554785;40;20502;-50
2021/05/24 11:56:37;;;;;;;10.50;10.10;;;25.10;59.40;;;;;;3562762;40;20480;-50
2021/05/24 11:59:07;;;;;;;10.40;10.10;;;25.10;59.40;;;;;;3563662;40;20482;-49
2021/05/24 12:01:35;;;;;;;10.83;10.50;;;25.10;59.40;;;;;;3564269;40;20481;-50
2021/05/24 12:04:13;;;;;;;10.70;10.30;;;25.10;59.50;;;;;;3564194;40;20493;-49
2021/05/24 12:06:43;;;;;;;10.57;10.17;;;25.10;59.50;;;;;;3559332;40;20500;-49
2021/05/24 12:09:11;;;;;;;10.47;10.07;;;25.10;59.50;;;;;;3554244;40;20859;-49
2021/05/24 12:11:54;;;;;;;10.23;9.93;;;25.00;59.50;;;;;;3557971;40;20489;-51
2021/05/24 12:14:23;;;;;;;10.50;10.10;;;25.00;59.50;;;;;;3555292;40;20564;-49
2021/05/24 12:16:49;;;;;;;9.70;9.33;;;25.00;59.50;;;;;;3557484;40;20497;-52
2021/05/24 12:19:20;;;;;;;10.13;9.83;;;25.00;59.60;;;;;;3564182;40;20482;-50
2021/05/24 12:21:47;;;;;;;10.00;9.70;;;25.00;59.60;;;;;;3565183;40;20600;-49
2021/05/24 12:24:18;;;;;;;10.53;10.00;;;25.00;59.60;;;;;;3557640;40;21100;-49
2021/05/24 12:26:51;;;;;;;10.30;9.90;;;25.00;59.70;;;;;;3555989;40;20528;-50
2021/05/24 12:29:25;;;;;;;10.38;10.07;;;25.00;59.70;;;;;;3563879;40;20279;-49
2021/05/24 12:31:54;;;;;;;10.83;10.53;;;25.00;59.70;;;;;;3561928;40;20484;-52
2021/05/24 12:34:25;;;;;;;11.00;10.60;;;25.00;59.70;;;;;;3553425;40;20494;-49
2021/05/24 12:36:56;;;;;;;11.20;10.80;;;25.00;59.80;;;;;;3556964;40;20507;-49
2021/05/24 12:39:26;;;;;;;10.90;10.50;;;25.00;59.80;;;;;;3561403;40;20499;-49
2021/05/24 12:41:56;;;;;;;10.70;10.30;;;25.00;59.80;;;;;;3561169;40;20509;-51